Time;durP1;ratioP1;P1;durP2;ratioP2;P2;SDS_P1;SDS_P2;PMS_P1;PMS_P2;Temp;Humidity;BMP_temperature;BMP_pressure;BME280_temperature;BME280_humidity;BME280_pressure;Samples;Min_cycle;Max_cycle;Signal;HPM_P1;HPM_P2
2021/03/19 00:00:20;;;;;;;14.05;10.48;;;;;;;5.98;47.74;100386.06;5055562;28;20131;-76
2021/03/19 00:02:49;;;;;;;12.07;9.27;;;;;;;5.91;47.76;100389.75;5054715;28;20127;-75
2021/03/19 00:05:17;;;;;;;13.73;9.27;;;;;;;5.86;48.07;100385.53;5054267;28;20041;-76
2021/03/19 00:07:52;;;;;;;14.07;9.38;;;;;;;6.04;47.31;100382.47;5054909;28;20561;-76
2021/03/19 00:10:25;;;;;;;13.18;10.48;;;;;;;6.04;47.42;100380.72;5055352;28;20041;-76
2021/03/19 00:12:53;;;;;;;14.65;9.40;;;;;;;6.02;47.52;100382.50;5054945;28;20056;-76
2021/03/19 00:15:25;;;;;;;13.63;9.68;;;;;;;6.09;47.95;100383.19;5054730;28;20590;-76
2021/03/19 00:17:57;;;;;;;13.30;9.93;;;;;;;5.93;47.96;100381.94;5054604;28;20106;-76
2021/03/19 00:20:31;;;;;;;11.52;9.02;;;;;;;5.79;48.89;100380.53;5055495;28;20055;-76
2021/03/19 00:22:57;;;;;;;14.88;9.77;;;;;;;5.91;48.80;100381.97;5054461;28;20107;-76
2021/03/19 00:25:24;;;;;;;12.93;10.68;;;;;;;6.07;48.08;100376.34;5055364;28;20369;-76
2021/03/19 00:27:50;;;;;;;14.55;10.73;;;;;;;6.17;47.83;100385.53;5054799;28;20487;-76
2021/03/19 00:30:17;;;;;;;13.10;9.88;;;;;;;5.97;48.31;100380.94;5055021;28;20044;-77
2021/03/19 00:32:45;;;;;;;10.77;8.90;;;;;;;5.84;49.04;100389.91;5054944;28;20048;-76
2021/03/19 00:35:12;;;;;;;15.32;11.15;;;;;;;5.83;48.87;100383.03;5055340;28;20440;-77
2021/03/19 00:37:39;;;;;;;14.77;10.10;;;;;;;5.68;49.51;100381.72;5054585;28;20044;-77
2021/03/19 00:40:09;;;;;;;12.27;9.75;;;;;;;5.77;48.94;100381.47;5054572;28;20045;-77
2021/03/19 00:42:35;;;;;;;10.98;8.95;;;;;;;5.75;49.01;100389.28;5055099;28;20123;-76
2021/03/19 00:45:04;;;;;;;9.70;8.70;;;;;;;5.75;48.76;100375.47;5054318;28;20518;-77
2021/03/19 00:47:31;;;;;;;14.48;10.18;;;;;;;5.77;49.15;100386.66;5054807;28;20434;-76
2021/03/19 00:49:59;;;;;;;12.25;9.90;;;;;;;5.74;49.36;100384.13;5054613;28;20037;-76
2021/03/19 00:52:25;;;;;;;13.05;9.68;;;;;;;5.73;49.09;100383.28;5051662;28;20060;-76
2021/03/19 00:54:53;;;;;;;13.45;9.20;;;;;;;5.65;49.55;100381.81;5054193;28;20502;-76
2021/03/19 00:57:19;;;;;;;13.10;8.55;;;;;;;5.59;49.52;100377.63;5054400;28;20051;-76
2021/03/19 00:59:46;;;;;;;11.02;8.32;;;;;;;5.57;49.55;100378.59;5053672;28;20434;-75
2021/03/19 01:02:13;;;;;;;10.20;7.65;;;;;;;5.65;49.11;100382.69;5053227;28;20037;-76
2021/03/19 01:04:40;;;;;;;10.02;8.30;;;;;;;5.63;48.78;100374.09;5054467;28;20042;-76
2021/03/19 01:07:06;;;;;;;22.35;8.02;;;;;;;5.65;48.55;100382.69;5055033;28;20462;-76
2021/03/19 01:09:32;;;;;;;11.05;7.43;;;;;;;5.70;48.59;100379.94;5051818;28;21042;-76
2021/03/19 01:11:59;;;;;;;8.57;6.88;;;;;;;5.44;48.84;100371.19;5040971;28;20045;-76
2021/03/19 01:14:25;;;;;;;10.48;9.13;;;;;;;5.67;47.98;100373.13;5040399;28;20040;-75
2021/03/19 01:16:53;;;;;;;8.13;7.22;;;;;;;5.66;48.13;100379.19;5036505;28;20129;-76
2021/03/19 01:19:20;;;;;;;10.02;8.07;;;;;;;5.69;47.65;100379.09;5037556;28;20073;-75
2021/03/19 01:21:46;;;;;;;12.27;9.75;;;;;;;5.52;48.25;100378.72;5038329;28;20041;-76
2021/03/19 01:24:13;;;;;;;10.15;9.13;;;;;;;5.58;48.55;100375.09;5037751;28;20087;-75
2021/03/19 01:26:39;;;;;;;10.82;8.27;;;;;;;5.73;48.01;100372.94;5042532;28;20040;-76
2021/03/19 01:29:06;;;;;;;11.77;8.20;;;;;;;5.68;48.10;100379.97;5040779;28;20037;-76
2021/03/19 01:31:33;;;;;;;9.35;7.15;;;;;;;5.70;47.72;100375.63;5035486;28;20065;-75
2021/03/19 01:34:00;;;;;;;9.88;7.28;;;;;;;5.60;48.11;100375.94;5038601;28;20448;-76
2021/03/19 01:36:27;;;;;;;8.27;7.47;;;;;;;5.56;48.36;100379.47;5038250;28;20124;-76
2021/03/19 01:38:54;;;;;;;9.32;8.07;;;;;;;5.57;48.81;100383.75;5037415;28;20053;-76
2021/03/19 01:41:21;;;;;;;11.70;8.52;;;;;;;5.57;49.10;100374.25;5044105;28;20045;-75
2021/03/19 01:43:56;;;;;;;10.20;6.63;;;;;;;5.54;48.36;100374.38;5040412;28;20071;-76
2021/03/19 01:47:00;;;;;;;8.77;6.90;;;;;;;5.71;48.10;100373.91;5040317;28;20439;-76
2021/03/19 01:50:04;;;;;;;10.98;7.57;;;;;;;5.70;48.19;100375.63;5037749;28;20051;-76
2021/03/19 01:53:08;;;;;;;8.57;7.47;;;;;;;5.72;47.67;100373.00;5041617;28;20045;-76
2021/03/19 01:56:12;;;;;;;14.23;7.63;;;;;;;5.76;47.94;100380.63;5038784;28;20072;-76
2021/03/19 01:59:15;;;;;;;16.77;8.18;;;;;;;5.67;47.99;100375.72;5035878;28;20615;-75
2021/03/19 02:02:19;;;;;;;7.63;6.65;;;;;;;5.70;48.10;100377.34;5036109;28;20049;-76
2021/03/19 02:05:23;;;;;;;9.73;7.50;;;;;;;5.56;48.73;100374.31;5040573;28;20048;-76
2021/03/19 02:08:27;;;;;;;12.05;8.30;;;;;;;5.66;48.38;100375.75;5038667;28;20084;-75
2021/03/19 02:11:31;;;;;;;10.30;6.93;;;;;;;5.72;48.22;100379.00;5038662;28;20107;-75
2021/03/19 02:14:36;;;;;;;10.18;9.07;;;;;;;5.75;48.20;100380.66;5037928;28;20045;-77
2021/03/19 02:17:40;;;;;;;10.57;9.23;;;;;;;5.67;49.15;100386.06;5043994;28;20373;-75
2021/03/19 02:20:44;;;;;;;8.82;7.47;;;;;;;5.64;49.49;100380.94;5040106;28;20056;-75
2021/03/19 02:23:48;;;;;;;10.35;8.40;;;;;;;5.65;49.16;100374.91;5037158;28;20137;-75
2021/03/19 02:26:51;;;;;;;10.05;6.97;;;;;;;5.72;49.56;100379.00;5037461;28;20423;-74
2021/03/19 02:29:55;;;;;;;8.00;7.18;;;;;;;5.60;49.30;100375.94;5036845;28;20072;-75
2021/03/19 02:32:26;;;;;;;13.82;8.60;;;;;;;5.64;48.78;100369.75;5039600;28;20041;-75
2021/03/19 02:35:13;;;;;;;8.20;7.32;;;;;;;5.74;48.77;100371.19;5036267;28;20124;-76
2021/03/19 02:37:39;;;;;;;8.65;6.78;;;;;;;5.55;48.73;100368.28;5033764;28;20072;-75
2021/03/19 02:40:14;;;;;;;9.93;6.40;;;;;;;5.66;48.28;100368.84;5037009;28;20064;-75
2021/03/19 02:42:41;;;;;;;8.88;7.05;;;;;;;5.66;48.87;100370.59;5034052;28;20045;-75
2021/03/19 02:45:12;;;;;;;15.10;7.05;;;;;;;5.59;48.48;100372.47;5036562;28;20128;-75
2021/03/19 02:47:39;;;;;;;10.43;8.25;;;;;;;5.67;48.17;100370.53;5039105;28;20041;-75
2021/03/19 02:50:08;;;;;;;11.52;8.07;;;;;;;5.63;49.03;100375.84;5034465;28;20128;-75
2021/03/19 02:52:37;;;;;;;17.73;8.85;;;;;;;5.33;49.75;100374.94;5038748;28;20442;-75
2021/03/19 02:55:09;;;;;;;12.90;7.68;;;;;;;5.16;50.09;100376.19;5037580;28;20506;-76
2021/03/19 02:57:35;;;;;;;12.43;8.40;;;;;;;5.14;50.17;100374.56;5042506;28;20491;-74
2021/03/19 03:00:06;;;;;;;9.52;8.40;;;;;;;5.05;50.20;100380.78;5042594;28;20503;-75
2021/03/19 03:02:32;;;;;;;13.45;8.38;;;;;;;5.03;49.79;100377.41;5037312;28;20124;-75
2021/03/19 03:04:59;;;;;;;9.70;8.70;;;;;;;4.56;50.25;100389.72;5038230;28;20050;-75
2021/03/19 03:07:29;;;;;;;12.65;8.07;;;;;;;4.70;50.55;100400.59;5040090;28;20136;-74
2021/03/19 03:09:57;;;;;;;12.40;8.25;;;;;;;4.63;51.01;100401.59;5041024;28;20041;-77
2021/03/19 03:12:24;;;;;;;10.55;7.28;;;;;;;4.75;50.22;100405.66;5039908;28;20049;-77
2021/03/19 03:14:51;;;;;;;11.90;8.05;;;;;;;4.67;49.85;100399.81;5042949;28;20180;-77
2021/03/19 03:17:18;;;;;;;11.32;7.25;;;;;;;4.84;49.22;100404.56;5037267;28;20056;-77
2021/03/19 03:19:44;;;;;;;8.07;6.63;;;;;;;4.82;48.23;100402.03;5039084;28;20051;-76
2021/03/19 03:22:11;;;;;;;7.63;6.45;;;;;;;4.94;48.11;100390.53;5041121;28;20037;-77
2021/03/19 03:24:38;;;;;;;7.70;6.57;;;;;;;4.83;48.80;100402.88;5043709;28;20064;-77
2021/03/19 03:27:07;;;;;;;7.50;6.28;;;;;;;4.66;49.00;100396.38;5043964;28;20496;-76
2021/03/19 03:29:35;;;;;;;9.63;5.95;;;;;;;5.03;48.25;100398.09;5039796;28;20090;-77
2021/03/19 03:32:02;;;;;;;8.93;6.15;;;;;;;4.96;47.68;100386.22;5043397;28;20041;-76
2021/03/19 03:34:30;;;;;;;12.38;6.97;;;;;;;5.01;47.43;100392.13;5040932;28;20039;-76
2021/03/19 03:36:57;;;;;;;7.90;5.95;;;;;;;4.78;48.37;100396.97;5043671;28;20487;-76
2021/03/19 03:39:29;;;;;;;7.30;6.18;;;;;;;4.51;49.44;100391.56;5045770;28;20083;-77
2021/03/19 03:41:58;;;;;;;7.50;6.50;;;;;;;4.58;49.09;100393.16;5043030;28;20389;-76
2021/03/19 03:44:25;;;;;;;7.97;6.63;;;;;;;4.55;49.17;100388.03;5041412;28;20037;-76
2021/03/19 03:46:53;;;;;;;7.53;6.72;;;;;;;4.67;48.76;100387.75;5047706;28;20041;-76
2021/03/19 03:49:20;;;;;;;10.52;6.40;;;;;;;4.67;48.58;100380.00;5041606;28;20048;-75
2021/03/19 03:51:47;;;;;;;8.15;5.65;;;;;;;4.81;48.34;100369.34;5041611;28;20037;-76
2021/03/19 03:54:14;;;;;;;8.77;5.97;;;;;;;4.82;48.55;100367.63;5043081;28;20068;-76
2021/03/19 03:56:40;;;;;;;9.00;6.65;;;;;;;4.88;48.45;100362.28;5048841;28;20592;-76
2021/03/19 03:59:07;;;;;;;7.30;5.97;;;;;;;4.76;49.05;100357.44;5040620;28;20116;-76
2021/03/19 04:01:40;;;;;;;7.10;6.30;;;;;;;4.80;49.30;100359.91;5044580;28;20120;-76
2021/03/19 04:04:10;;;;;;;8.57;7.35;;;;;;;4.82;49.14;100354.69;5041330;28;20043;-77
2021/03/19 04:06:37;;;;;;;10.35;7.45;;;;;;;4.70;49.55;100354.13;5041541;28;20049;-77
2021/03/19 04:09:04;;;;;;;9.23;7.72;;;;;;;4.90;49.22;100350.16;5038415;28;20134;-77
2021/03/19 04:11:31;;;;;;;10.45;7.18;;;;;;;4.85;48.97;100349.47;5038473;28;20107;-77
2021/03/19 04:13:58;;;;;;;10.23;6.90;;;;;;;4.86;49.21;100351.16;5043954;28;20044;-77
2021/03/19 04:16:26;;;;;;;8.90;8.00;;;;;;;4.83;49.48;100351.22;5042801;28;20059;-77
2021/03/19 04:18:53;;;;;;;8.35;6.88;;;;;;;5.08;48.84;100349.72;5041614;28;20095;-76
2021/03/19 04:21:20;;;;;;;10.27;6.68;;;;;;;4.94;48.78;100346.63;5044685;28;20103;-77
2021/03/19 04:23:48;;;;;;;8.27;7.28;;;;;;;4.90;49.40;100355.34;5046668;28;20060;-76
2021/03/19 04:26:35;;;;;;;10.02;7.75;;;;;;;4.72;49.73;100339.41;5040144;28;20394;-76
2021/03/19 04:29:04;;;;;;;10.27;7.65;;;;;;;4.80;49.65;100343.56;5037431;28;20496;-75
2021/03/19 04:31:31;;;;;;;11.52;7.55;;;;;;;4.92;49.09;100349.25;5035976;28;20134;-75
2021/03/19 04:33:57;;;;;;;10.52;8.27;;;;;;;4.89;49.23;100349.31;5045915;28;20072;-75
2021/03/19 04:36:47;;;;;;;11.55;8.75;;;;;;;4.93;49.27;100347.53;5041043;28;20576;-76
2021/03/19 04:39:18;;;;;;;8.88;7.90;;;;;;;4.81;49.47;100347.84;5047774;28;20455;-77
2021/03/19 04:41:49;;;;;;;11.93;8.63;;;;;;;4.85;49.06;100339.13;5054797;28;20434;-78
2021/03/19 04:44:16;;;;;;;11.75;6.78;;;;;;;5.14;48.08;100338.38;5053079;28;20124;-77
2021/03/19 04:46:43;;;;;;;14.65;8.63;;;;;;;5.04;48.01;100337.75;5044919;28;20041;-77
2021/03/19 04:49:09;;;;;;;19.17;8.30;;;;;;;4.94;48.25;100336.31;5045910;28;20120;-78
2021/03/19 04:51:36;;;;;;;10.30;8.52;;;;;;;5.21;47.23;100339.91;5045706;28;20047;-77
2021/03/19 04:54:03;;;;;;;10.02;8.15;;;;;;;5.21;46.53;100329.56;5042660;28;20079;-77
2021/03/19 04:56:30;;;;;;;8.13;7.32;;;;;;;5.25;46.88;100337.19;5042973;28;20046;-77
2021/03/19 04:58:56;;;;;;;9.93;8.00;;;;;;;5.28;47.11;100340.63;5037830;28;20061;-77
2021/03/19 05:01:23;;;;;;;9.13;7.90;;;;;;;5.22;47.68;100344.22;5040441;28;20120;-77
2021/03/19 05:03:49;;;;;;;9.85;8.68;;;;;;;4.95;48.67;100343.16;5040706;28;20087;-78
2021/03/19 05:06:17;;;;;;;13.13;9.65;;;;;;;4.65;49.42;100342.19;5045149;28;20055;-77
2021/03/19 05:08:44;;;;;;;10.88;8.82;;;;;;;4.72;49.59;100347.16;5046451;28;20095;-77
2021/03/19 05:11:12;;;;;;;8.13;7.28;;;;;;;4.75;49.87;100346.25;5045977;28;20068;-77
2021/03/19 05:13:40;;;;;;;11.43;9.70;;;;;;;4.60;50.22;100357.81;5042091;28;20044;-77
2021/03/19 05:16:06;;;;;;;10.00;8.13;;;;;;;4.18;50.96;100355.31;5038086;28;20044;-77
2021/03/19 05:18:33;;;;;;;8.20;7.40;;;;;;;4.35;50.64;100352.34;5040300;28;20127;-77
2021/03/19 05:21:00;;;;;;;8.55;7.65;;;;;;;4.13;51.20;100357.13;5042090;28;20049;-76
2021/03/19 05:23:30;;;;;;;10.18;8.48;;;;;;;4.00;51.44;100360.88;5042253;28;20041;-76
2021/03/19 05:25:57;;;;;;;13.43;9.52;;;;;;;4.25;50.43;100361.16;5042595;28;20094;-75
2021/03/19 05:28:24;;;;;;;10.30;9.15;;;;;;;4.01;51.09;100359.16;5041175;28;20045;-76
2021/03/19 05:30:55;;;;;;;11.50;8.52;;;;;;;4.04;51.05;100365.06;5038450;28;20463;-76
2021/03/19 05:33:24;;;;;;;10.45;9.43;;;;;;;3.99;50.98;100369.47;5046921;28;20369;-76
2021/03/19 05:35:51;;;;;;;11.50;8.55;;;;;;;4.19;50.55;100372.47;5037550;28;20047;-75
2021/03/19 05:38:18;;;;;;;10.13;8.20;;;;;;;4.13;50.96;100371.78;5045333;28;20044;-75
2021/03/19 05:40:48;;;;;;;18.25;8.52;;;;;;;4.36;50.05;100374.69;5053541;28;20088;-74
2021/03/19 05:43:23;;;;;;;9.10;7.68;;;;;;;4.61;49.12;100363.81;5052676;28;20543;-75
2021/03/19 05:46:00;;;;;;;13.57;8.18;;;;;;;4.76;48.93;100367.75;5053492;28;20041;-75
2021/03/19 05:48:39;;;;;;;9.68;8.45;;;;;;;4.72;48.93;100377.31;5052514;28;20080;-74
2021/03/19 05:51:15;;;;;;;13.70;9.63;;;;;;;5.08;47.91;100374.72;5052441;28;20048;-74
2021/03/19 05:53:44;;;;;;;13.75;8.90;;;;;;;4.54;48.51;100378.59;5053070;28;20049;-75
2021/03/19 05:56:16;;;;;;;17.52;8.80;;;;;;;4.47;48.84;100388.22;5053209;28;20043;-74
2021/03/19 05:58:44;;;;;;;13.07;8.60;;;;;;;5.06;48.16;100377.34;5052920;28;20123;-75
2021/03/19 06:01:14;;;;;;;11.13;8.52;;;;;;;5.55;46.91;100370.88;5052972;28;20048;-75
2021/03/19 06:03:42;;;;;;;13.15;9.07;;;;;;;5.79;46.28;100371.91;5051616;28;20059;-75
2021/03/19 06:06:12;;;;;;;9.35;8.35;;;;;;;5.88;45.62;100374.25;5052434;28;20033;-74
2021/03/19 06:08:47;;;;;;;22.73;9.40;;;;;;;5.99;45.51;100381.75;5051224;28;20495;-74
2021/03/19 06:11:26;;;;;;;13.25;9.05;;;;;;;6.21;45.21;100375.03;5052455;28;20112;-74
2021/03/19 06:14:18;;;;;;;11.82;8.88;;;;;;;6.29;44.94;100367.91;5044479;28;20551;-74
2021/03/19 06:16:47;;;;;;;11.55;8.65;;;;;;;6.77;44.03;100371.59;5043520;28;20460;-75
2021/03/19 06:19:47;;;;;;;12.30;9.10;;;;;;;7.07;43.64;100375.75;5052083;28;20044;-74
2021/03/19 06:22:42;;;;;;;12.43;8.57;;;;;;;7.64;42.58;100375.53;5050631;28;20037;-74
2021/03/19 06:25:34;;;;;;;12.65;9.70;;;;;;;7.25;42.53;100369.13;5052330;28;20095;-77
2021/03/19 06:28:23;;;;;;;13.07;8.82;;;;;;;7.26;42.64;100377.72;5051123;28;20166;-73
2021/03/19 06:30:51;;;;;;;12.43;9.73;;;;;;;6.93;43.48;100379.72;5054249;28;20041;-75
2021/03/19 06:33:17;;;;;;;12.27;8.38;;;;;;;6.88;43.07;100382.47;5052033;28;20114;-75
2021/03/19 06:35:48;;;;;;;12.75;8.77;;;;;;;7.27;42.81;100387.19;5051834;28;20099;-74
2021/03/19 06:38:39;;;;;;;11.45;9.02;;;;;;;6.73;42.91;100391.56;5052842;28;20052;-76
2021/03/19 06:41:24;;;;;;;14.45;10.45;;;;;;;6.71;44.12;100380.41;5048326;28;20399;-73
2021/03/19 06:44:12;;;;;;;18.10;9.77;;;;;;;6.85;43.80;100379.94;5051271;28;20048;-72
2021/03/19 06:46:59;;;;;;;12.25;9.63;;;;;;;6.34;44.84;100385.00;5042186;28;20081;-72
2021/03/19 06:49:28;;;;;;;11.70;9.18;;;;;;;6.20;45.58;100393.22;5049401;28;20055;-72
2021/03/19 06:52:23;;;;;;;15.90;10.10;;;;;;;6.46;45.71;100387.25;5051850;28;20510;-73
2021/03/19 06:54:51;;;;;;;17.75;9.68;;;;;;;6.87;44.50;100391.13;5046119;28;20079;-73
2021/03/19 06:57:21;;;;;;;13.13;9.63;;;;;;;6.89;44.13;100396.25;5047822;28;20566;-73
2021/03/19 06:59:49;;;;;;;13.07;9.45;;;;;;;7.76;44.66;100393.25;5053495;28;20495;-71
2021/03/19 07:02:42;;;;;;;12.25;9.05;;;;;;;8.35;42.91;100393.63;5055894;28;20128;-76
2021/03/19 07:05:16;;;;;;;18.95;9.77;;;;;;;8.52;41.57;100386.97;5056946;28;20124;-72
2021/03/19 07:07:55;;;;;;;18.73;9.70;;;;;;;9.75;40.21;100387.88;5042075;28;20037;-74
2021/03/19 07:10:29;;;;;;;15.30;9.73;;;;;;;9.78;39.15;100386.00;5044223;28;20492;-68
2021/03/19 07:13:31;;;;;;;12.32;10.18;;;;;;;9.59;39.92;100387.75;5051585;28;20124;-66
2021/03/19 07:16:01;;;;;;;11.93;9.57;;;;;;;11.08;37.02;100379.03;5051323;28;20041;-75
2021/03/19 07:18:52;;;;;;;14.75;8.45;;;;;;;10.80;38.15;100375.19;5051902;28;20136;-69
2021/03/19 07:21:18;;;;;;;18.10;11.07;;;;;;;11.88;35.74;100371.44;5054404;28;20503;-69
2021/03/19 07:24:09;;;;;;;11.43;8.73;;;;;;;11.75;36.28;100373.81;5055282;28;20076;-69
2021/03/19 07:26:44;;;;;;;22.00;9.73;;;;;;;12.80;33.73;100367.19;5056164;28;20505;-69
2021/03/19 07:29:14;;;;;;;13.23;10.25;;;;;;;11.02;36.61;100378.47;5048202;28;20041;-69
2021/03/19 07:31:52;;;;;;;15.52;9.57;;;;;;;10.90;36.87;100381.66;5055508;28;20047;-69
2021/03/19 07:34:41;;;;;;;20.08;9.75;;;;;;;11.05;38.04;100374.00;5045289;28;20049;-69
2021/03/19 07:37:35;;;;;;;12.70;8.85;;;;;;;11.51;36.48;100373.34;5055084;28;20507;-69
2021/03/19 07:40:13;;;;;;;;;;;;;;;11.60;35.50;100377.22;5055689;28;20037;-67
2021/03/19 07:42:58;;;;;;;15.57;9.75;;;;;;;12.44;35.28;100380.56;5055159;28;20338;-68
2021/03/19 07:45:41;;;;;;;;;;;;;;;13.43;34.49;100376.66;5054863;28;20540;-69
2021/03/19 07:48:36;;;;;;;18.30;10.65;;;;;;;13.06;34.01;100380.56;5055840;28;20311;-69
2021/03/19 07:51:11;;;;;;;19.67;9.60;;;;;;;13.63;31.61;100388.53;5051163;28;20120;-69
2021/03/19 07:54:02;;;;;;;13.32;8.73;;;;;;;13.09;32.27;100389.06;5052484;28;20056;-69
2021/03/19 07:56:57;;;;;;;28.00;10.13;;;;;;;13.67;31.89;100387.41;5048398;28;20041;-69
2021/03/19 07:59:48;;;;;;;23.70;9.27;;;;;;;13.59;31.97;100389.69;5044532;28;20119;-68
2021/03/19 08:02:52;;;;;;;15.73;9.80;;;;;;;14.52;30.56;100393.53;5052498;28;20041;-68
2021/03/19 08:05:22;;;;;;;19.58;9.55;;;;;;;14.09;31.30;100394.44;5052122;28;20051;-67
2021/03/19 08:08:00;;;;;;;14.68;9.52;;;;;;;14.27;30.92;100388.97;5039728;28;20123;-66
2021/03/19 08:10:37;;;;;;;10.77;8.50;;;;;;;14.89;30.87;100392.84;5040077;28;20049;-67
2021/03/19 08:13:41;;;;;;;21.02;10.35;;;;;;;14.80;30.39;100392.59;5042280;28;20041;-67
2021/03/19 08:16:25;;;;;;;10.98;8.00;;;;;;;14.11;30.49;100389.06;5045588;28;20601;-67
2021/03/19 08:19:03;;;;;;;11.45;8.40;;;;;;;14.68;29.63;100389.81;5038305;28;20049;-66
2021/03/19 08:22:16;;;;;;;14.07;9.10;;;;;;;14.41;30.23;100388.94;5039504;28;20043;-66
2021/03/19 08:25:12;;;;;;;13.68;8.52;;;;;;;14.24;31.10;100394.41;5035887;28;20127;-66
2021/03/19 08:27:58;;;;;;;9.70;8.07;;;;;;;13.58;31.88;100394.06;5039623;28;20047;-66
2021/03/19 08:30:55;;;;;;;10.98;7.88;;;;;;;13.86;31.58;100390.63;5042474;28;20102;-66
2021/03/19 08:33:28;;;;;;;11.65;9.32;;;;;;;14.32;31.61;100389.50;5035887;28;20045;-67
2021/03/19 08:36:05;;;;;;;9.05;8.07;;;;;;;14.32;31.46;100381.66;5042154;28;20041;-67
2021/03/19 08:38:49;;;;;;;11.63;6.90;;;;;;;14.22;31.74;100391.03;5042460;28;20073;-68
2021/03/19 08:41:20;;;;;;;10.57;8.10;;;;;;;15.08;31.08;100387.22;5040681;28;20053;-67
2021/03/19 08:44:03;;;;;;;7.82;6.65;;;;;;;14.01;32.56;100388.84;5043056;28;20052;-66
2021/03/19 08:46:40;;;;;;;9.48;6.60;;;;;;;15.27;31.19;100388.59;5038779;28;20455;-67
2021/03/19 08:49:25;;;;;;;8.30;6.47;;;;;;;16.10;29.51;100389.03;5040814;28;20362;-66
2021/03/19 08:51:55;;;;;;;9.07;6.28;;;;;;;16.67;28.58;100383.16;5046055;28;20077;-66
2021/03/19 08:54:31;;;;;;;7.32;6.18;;;;;;;16.30;29.39;100387.59;5044538;28;20072;-66
2021/03/19 08:57:03;;;;;;;6.93;5.70;;;;;;;15.32;30.54;100386.50;5044243;28;20041;-66
2021/03/19 08:59:36;;;;;;;7.68;4.32;;;;;;;16.35;29.19;100382.84;5041458;28;20053;-66
2021/03/19 09:02:18;;;;;;;4.63;4.00;;;;;;;16.64;27.94;100380.75;5053179;28;20041;-64
2021/03/19 09:05:00;;;;;;;7.88;4.38;;;;;;;16.59;28.31;100391.63;5052641;28;20037;-63
2021/03/19 09:07:33;;;;;;;8.20;5.22;;;;;;;15.82;29.19;100387.47;5052580;28;20063;-63
2021/03/19 09:10:18;;;;;;;5.25;4.57;;;;;;;15.88;29.50;100382.66;5049233;28;20085;-63
2021/03/19 09:12:57;;;;;;;;;;;;;;;15.46;29.04;100386.44;5050888;28;20052;-64
2021/03/19 09:15:32;;;;;;;4.45;3.95;;;;;;;14.53;29.98;100390.81;5052608;28;19982;-65
2021/03/19 09:18:03;;;;;;;16.25;4.20;;;;;;;12.93;33.67;100400.50;5047516;28;20408;-64
2021/03/19 09:20:39;;;;;;;6.32;4.32;;;;;;;13.11;33.91;100392.44;5051071;28;20468;-63
2021/03/19 09:23:12;;;;;;;5.57;4.55;;;;;;;12.83;34.61;100392.31;5048751;28;20045;-64
2021/03/19 09:25:45;;;;;;;5.88;4.65;;;;;;;12.68;34.48;100394.06;5052145;28;20512;-66
2021/03/19 09:28:17;;;;;;;6.47;4.60;;;;;;;12.65;34.53;100398.63;5051309;28;20074;-64
2021/03/19 09:30:50;;;;;;;5.40;4.43;;;;;;;11.84;36.04;100390.81;5051015;28;20392;-63
2021/03/19 09:33:47;;;;;;;7.30;4.75;;;;;;;11.64;36.21;100399.66;5049399;28;20041;-63
2021/03/19 09:36:48;;;;;;;7.57;4.90;;;;;;;11.36;38.04;100400.25;5046133;28;20041;-62
2021/03/19 09:39:46;;;;;;;7.88;5.10;;;;;;;11.43;38.51;100399.00;5044594;28;20135;-61
2021/03/19 09:42:19;;;;;;;8.05;4.88;;;;;;;11.36;38.07;100402.00;5044375;28;20049;-67
2021/03/19 09:45:01;;;;;;;6.13;5.22;;;;;;;11.02;38.51;100395.84;5051288;28;20053;-66
2021/03/19 09:48:10;;;;;;;6.63;5.53;;;;;;;10.71;39.12;100404.34;5048959;28;20041;-68
2021/03/19 09:50:46;;;;;;;;;;;;;;;10.83;40.05;100395.06;5052449;28;20094;-62
2021/03/19 09:53:18;;;;;;;6.45;4.90;;;;;;;11.08;38.94;100392.97;5045217;28;19960;-61
2021/03/19 09:56:20;;;;;;;7.40;4.78;;;;;;;10.70;40.11;100397.41;5051631;28;20037;-62
2021/03/19 09:58:52;;;;;;;7.70;5.70;;;;;;;10.89;39.49;100394.78;5050861;28;20129;-63
2021/03/19 10:01:26;;;;;;;9.48;5.63;;;;;;;11.16;39.24;100392.56;5051720;28;20157;-64
2021/03/19 10:04:04;;;;;;;7.40;5.63;;;;;;;11.00;40.34;100398.53;5049485;28;20065;-66
2021/03/19 10:06:44;;;;;;;7.70;5.95;;;;;;;10.86;39.45;100393.13;5052648;28;20095;-65
2021/03/19 10:09:17;;;;;;;8.02;4.93;;;;;;;11.06;39.15;100396.53;5049657;28;20430;-63
2021/03/19 10:11:50;;;;;;;7.35;4.93;;;;;;;10.88;39.87;100393.09;5051426;28;20392;-63
2021/03/19 10:14:38;;;;;;;9.18;5.55;;;;;;;11.04;39.43;100399.25;5049792;28;20483;-64
2021/03/19 10:17:23;;;;;;;8.85;5.60;;;;;;;10.64;39.52;100401.16;5050707;28;20407;-64
2021/03/19 10:19:57;;;;;;;6.35;4.57;;;;;;;11.00;38.51;100402.91;5051443;28;20403;-64
2021/03/19 10:22:46;;;;;;;5.82;5.10;;;;;;;10.80;39.67;100395.22;5051653;28;20045;-64
2021/03/19 10:25:21;;;;;;;6.53;5.18;;;;;;;10.79;38.22;100407.41;5046238;28;20049;-62
2021/03/19 10:28:06;;;;;;;6.45;5.03;;;;;;;11.27;38.67;100395.47;5039083;28;20064;-63
2021/03/19 10:30:36;;;;;;;5.93;5.28;;;;;;;10.96;37.65;100393.53;5038115;28;20044;-62
2021/03/19 10:33:24;;;;;;;7.25;5.90;;;;;;;10.87;37.32;100402.69;5038040;28;20128;-63
2021/03/19 10:35:51;;;;;;;6.35;4.88;;;;;;;10.92;38.25;100390.25;5038652;28;20055;-62
2021/03/19 10:38:26;;;;;;;8.10;5.38;;;;;;;11.27;38.07;100387.66;5048716;28;20446;-64
2021/03/19 10:40:59;;;;;;;12.23;5.80;;;;;;;11.06;38.65;100391.31;5048163;28;20041;-65
2021/03/19 10:43:32;;;;;;;8.88;4.93;;;;;;;11.26;37.10;100394.63;5042554;28;20086;-62
2021/03/19 10:46:17;;;;;;;7.82;5.43;;;;;;;11.12;37.19;100384.03;5038041;28;20095;-64
2021/03/19 10:48:47;;;;;;;7.07;4.47;;;;;;;11.07;35.37;100379.97;5038111;28;20044;-62
2021/03/19 10:51:22;;;;;;;7.57;5.05;;;;;;;11.19;36.42;100385.44;5039661;28;20499;-62
2021/03/19 10:53:56;;;;;;;5.07;4.15;;;;;;;11.17;33.82;100386.41;5034157;28;20037;-63
2021/03/19 10:56:25;;;;;;;5.60;4.60;;;;;;;10.74;34.81;100383.31;5039148;28;20041;-64
2021/03/19 10:59:07;;;;;;;7.90;4.95;;;;;;;10.66;35.47;100383.69;5046325;28;20041;-63
2021/03/19 11:01:41;;;;;;;9.85;5.30;;;;;;;10.85;35.31;100378.41;5037890;28;20064;-63
2021/03/19 11:04:37;;;;;;;5.60;4.15;;;;;;;10.74;35.47;100391.13;5048312;28;20048;-64
2021/03/19 11:07:19;;;;;;;5.47;4.15;;;;;;;10.88;35.31;100377.44;5035497;28;20045;-64
2021/03/19 11:10:07;;;;;;;5.05;4.20;;;;;;;11.07;34.43;100393.00;5032985;28;20041;-65
2021/03/19 11:12:39;;;;;;;6.25;4.85;;;;;;;11.15;33.88;100377.84;5039565;28;20045;-63
2021/03/19 11:15:20;;;;;;;5.90;4.38;;;;;;;11.27;34.45;100380.66;5047889;28;20404;-64
2021/03/19 11:18:10;;;;;;;5.63;4.05;;;;;;;10.98;33.89;100386.50;5044392;28;20061;-69
2021/03/19 11:20:53;;;;;;;5.18;4.65;;;;;;;11.12;33.25;100385.81;5039719;28;20387;-64
2021/03/19 11:23:29;;;;;;;7.32;4.38;;;;;;;10.94;31.89;100383.19;5041750;28;20128;-64
2021/03/19 11:25:57;;;;;;;6.20;4.22;;;;;;;10.86;31.76;100381.88;5038629;28;20045;-63
2021/03/19 11:28:39;;;;;;;5.68;3.58;;;;;;;10.97;32.51;100372.63;5037781;28;20846;-63
2021/03/19 11:31:54;;;;;;;4.90;4.25;;;;;;;11.18;31.71;100373.28;5042513;28;20107;-64
2021/03/19 11:34:53;;;;;;;7.85;5.30;;;;;;;11.31;32.57;100364.84;5007863;28;20518;-63
2021/03/19 11:37:19;;;;;;;5.20;3.70;;;;;;;11.25;31.74;100361.63;5038918;28;20446;-63
2021/03/19 11:39:56;;;;;;;6.60;3.72;;;;;;;11.09;31.23;100365.09;5049730;28;20065;-65
2021/03/19 11:42:25;;;;;;;4.10;3.70;;;;;;;11.21;31.60;100360.09;5043129;28;20041;-64
2021/03/19 11:44:56;;;;;;;4.03;3.63;;;;;;;11.23;31.08;100358.25;5034848;28;20527;-64
2021/03/19 11:47:31;;;;;;;4.28;3.88;;;;;;;11.17;31.46;100350.72;5043884;28;20128;-64
2021/03/19 11:50:22;;;;;;;6.68;4.07;;;;;;;11.29;31.41;100346.66;5043748;28;20048;-63
2021/03/19 11:52:52;;;;;;;5.85;4.40;;;;;;;11.22;33.25;100340.06;5043440;28;20052;-63
2021/03/19 11:55:30;;;;;;;7.72;4.30;;;;;;;11.17;33.44;100347.28;5040439;28;20041;-63
2021/03/19 11:57:58;;;;;;;6.18;4.43;;;;;;;11.25;33.20;100334.69;5048997;28;20135;-63
2021/03/19 12:00:28;;;;;;;7.03;4.32;;;;;;;11.27;32.42;100338.06;5048606;28;20034;-63
2021/03/19 12:02:57;;;;;;;6.65;4.25;;;;;;;11.30;32.84;100332.69;5053347;28;20086;-64
2021/03/19 12:05:24;;;;;;;5.88;3.50;;;;;;;11.65;32.35;100325.63;5049252;28;20041;-63
2021/03/19 12:07:51;;;;;;;5.03;4.30;;;;;;;11.49;32.42;100322.97;5049865;28;20060;-63